sensor_id;sensor_type;location;lat;lon;timestamp;pressure;altitude;pressure_sealevel;temperature;humidity
49463;BME280;35357;51.722;0.500;2023-08-01T00:01:52;99761.33;;;13.85;100.00
49463;BME280;35357;51.722;0.500;2023-08-01T00:04:18;99760.64;;;15.22;100.00
49463;BME280;35357;51.722;0.500;2023-08-01T00:06:46;99761.01;;;14.09;100.00
49463;BME280;35357;51.722;0.500;2023-08-01T00:09:13;99760.53;;;14.34;100.00
49463;BME280;35357;51.722;0.500;2023-08-01T00:11:39;99760.48;;;14.43;100.00
49463;BME280;35357;51.722;0.500;2023-08-01T00:14:06;99758.04;;;15.21;100.00
49463;BME280;35357;51.722;0.500;2023-08-01T00:16:33;99760.60;;;15.90;100.00
49463;BME280;35357;51.722;0.500;2023-08-01T00:19:00;99762.63;;;13.99;100.00
49463;BME280;35357;51.722;0.500;2023-08-01T00:21:27;99764.57;;;14.53;100.00
49463;BME280;35357;51.722;0.500;2023-08-01T00:23:54;99769.87;;;14.85;100.00
49463;BME280;35357;51.722;0.500;2023-08-01T00:26:21;99767.81;;;15.60;100.00
49463;BME280;35357;51.722;0.500;2023-08-01T00:28:49;99770.27;;;14.83;100.00
49463;BME280;35357;51.722;0.500;2023-08-01T00:31:16;99768.20;;;14.89;100.00
49463;BME280;35357;51.722;0.500;2023-08-01T00:33:43;99761.65;;;15.83;100.00
49463;BME280;35357;51.722;0.500;2023-08-01T00:36:09;99760.87;;;15.77;100.00
49463;BME280;35357;51.722;0.500;2023-08-01T00:38:37;99760.68;;;15.41;100.00
49463;BME280;35357;51.722;0.500;2023-08-01T00:41:04;99756.17;;;14.84;100.00
49463;BME280;35357;51.722;0.500;2023-08-01T00:43:32;99748.52;;;14.56;100.00
49463;BME280;35357;51.722;0.500;2023-08-01T00:46:00;99752.62;;;14.64;100.00
49463;BME280;35357;51.722;0.500;2023-08-01T00:48:28;99753.90;;;15.26;100.00
49463;BME280;35357;51.722;0.500;2023-08-01T00:50:56;99762.58;;;15.29;100.00
49463;BME280;35357;51.722;0.500;2023-08-01T00:53:23;99766.07;;;14.82;100.00
49463;BME280;35357;51.722;0.500;2023-08-01T00:55:51;99768.40;;;14.07;100.00
49463;BME280;35357;51.722;0.500;2023-08-01T00:58:19;99766.62;;;15.25;100.00
49463;BME280;35357;51.722;0.500;2023-08-01T01:00:46;99765.72;;;13.73;100.00
49463;BME280;35357;51.722;0.500;2023-08-01T01:03:14;99769.28;;;14.04;100.00
49463;BME280;35357;51.722;0.500;2023-08-01T01:05:47;99773.54;;;13.59;100.00
49463;BME280;35357;51.722;0.500;2023-08-01T01:08:16;99767.25;;;14.48;100.00
49463;BME280;35357;51.722;0.500;2023-08-01T01:10:44;99766.78;;;15.11;100.00
49463;BME280;35357;51.722;0.500;2023-08-01T01:13:11;99767.72;;;14.85;100.00
49463;BME280;35357;51.722;0.500;2023-08-01T01:15:38;99773.86;;;13.29;100.00
49463;BME280;35357;51.722;0.500;2023-08-01T01:18:06;99763.86;;;14.63;100.00
49463;BME280;35357;51.722;0.500;2023-08-01T01:20:34;99765.25;;;14.10;100.00
49463;BME280;35357;51.722;0.500;2023-08-01T01:23:03;99765.81;;;14.16;100.00
49463;BME280;35357;51.722;0.500;2023-08-01T01:25:32;99771.58;;;13.80;100.00
49463;BME280;35357;51.722;0.500;2023-08-01T01:28:00;99769.11;;;14.40;100.00
49463;BME280;35357;51.722;0.500;2023-08-01T01:30:29;99776.60;;;13.43;100.00
49463;BME280;35357;51.722;0.500;2023-08-01T01:32:57;99780.46;;;13.55;100.00
49463;BME280;35357;51.722;0.500;2023-08-01T01:35:25;99777.36;;;12.86;100.00
49463;BME280;35357;51.722;0.500;2023-08-01T01:37:53;99775.81;;;13.67;100.00
49463;BME280;35357;51.722;0.500;2023-08-01T01:40:20;99770.39;;;14.38;100.00
49463;BME280;35357;51.722;0.500;2023-08-01T01:42:47;99772.36;;;13.60;100.00
49463;BME280;35357;51.722;0.500;2023-08-01T01:45:14;99776.65;;;14.25;100.00
49463;BME280;35357;51.722;0.500;2023-08-01T01:47:42;99773.07;;;14.06;100.00
49463;BME280;35357;51.722;0.500;2023-08-01T01:50:09;99776.07;;;13.54;100.00
49463;BME280;35357;51.722;0.500;2023-08-01T01:52:36;99772.80;;;14.47;100.00
49463;BME280;35357;51.722;0.500;2023-08-01T01:55:04;99774.83;;;14.56;100.00
49463;BME280;35357;51.722;0.500;2023-08-01T01:57:32;99770.88;;;14.35;100.00
49463;BME280;35357;51.722;0.500;2023-08-01T01:59:59;99772.97;;;14.20;100.00
49463;BME280;35357;51.722;0.500;2023-08-01T02:02:26;99774.55;;;14.91;100.00
49463;BME280;35357;51.722;0.500;2023-08-01T02:04:53;99770.80;;;15.65;100.00
49463;BME280;35357;51.722;0.500;2023-08-01T02:07:20;99772.05;;;14.09;100.00
49463;BME280;35357;51.722;0.500;2023-08-01T02:09:47;99773.18;;;14.09;100.00
49463;BME280;35357;51.722;0.500;2023-08-01T02:12:14;99774.71;;;13.63;100.00
49463;BME280;35357;51.722;0.500;2023-08-01T02:14:41;99773.21;;;14.84;100.00
49463;BME280;35357;51.722;0.500;2023-08-01T02:17:08;99777.29;;;14.06;100.00
49463;BME280;35357;51.722;0.500;2023-08-01T02:19:35;99773.15;;;13.67;100.00
49463;BME280;35357;51.722;0.500;2023-08-01T02:22:02;99775.97;;;12.85;100.00
49463;BME280;35357;51.722;0.500;2023-08-01T02:24:28;99780.03;;;13.76;100.00
49463;BME280;35357;51.722;0.500;2023-08-01T02:26:56;99781.26;;;13.33;100.00
49463;BME280;35357;51.722;0.500;2023-08-01T02:29:22;99780.69;;;13.75;100.00
49463;BME280;35357;51.722;0.500;2023-08-01T02:31:49;99783.76;;;12.92;100.00
49463;BME280;35357;51.722;0.500;2023-08-01T02:34:16;99785.15;;;13.03;100.00
49463;BME280;35357;51.722;0.500;2023-08-01T02:36:44;99777.09;;;14.35;100.00
49463;BME280;35357;51.722;0.500;2023-08-01T02:39:11;99781.37;;;13.63;100.00
49463;BME280;35357;51.722;0.500;2023-08-01T02:41:39;99779.40;;;13.89;100.00
49463;BME280;35357;51.722;0.500;2023-08-01T02:44:06;99778.19;;;13.73;100.00
49463;BME280;35357;51.722;0.500;2023-08-01T02:46:33;99776.93;;;14.59;100.00
49463;BME280;35357;51.722;0.500;2023-08-01T02:49:00;99776.75;;;14.13;100.00
49463;BME280;35357;51.722;0.500;2023-08-01T02:51:27;99778.15;;;13.27;100.00
49463;BME280;35357;51.722;0.500;2023-08-01T02:53:54;99771.53;;;14.23;100.00
49463;BME280;35357;51.722;0.500;2023-08-01T02:56:22;99777.82;;;13.52;100.00
49463;BME280;35357;51.722;0.500;2023-08-01T02:58:49;99768.11;;;14.50;100.00
49463;BME280;35357;51.722;0.500;2023-08-01T03:01:16;99773.62;;;14.26;100.00
49463;BME280;35357;51.722;0.500;2023-08-01T03:03:43;99771.13;;;14.13;100.00
49463;BME280;35357;51.722;0.500;2023-08-01T03:06:10;99766.38;;;14.96;100.00
49463;BME280;35357;51.722;0.500;2023-08-01T03:08:37;99767.78;;;13.74;100.00
49463;BME280;35357;51.722;0.500;2023-08-01T03:11:05;99765.86;;;13.92;100.00
49463;BME280;35357;51.722;0.500;2023-08-01T03:13:32;99770.15;;;13.84;100.00
49463;BME280;35357;51.722;0.500;2023-08-01T03:15:59;99770.75;;;14.09;100.00
49463;BME280;35357;51.722;0.500;2023-08-01T03:18:26;99770.05;;;13.44;100.00
49463;BME280;35357;51.722;0.500;2023-08-01T03:20:53;99767.40;;;14.20;100.00
49463;BME280;35357;51.722;0.500;2023-08-01T03:23:20;99770.89;;;14.30;100.00
49463;BME280;35357;51.722;0.500;2023-08-01T03:25:47;99774.75;;;13.65;100.00
49463;BME280;35357;51.722;0.500;2023-08-01T03:28:14;99772.35;;;13.69;100.00
49463;BME280;35357;51.722;0.500;2023-08-01T03:30:41;99766.32;;;13.75;100.00
49463;BME280;35357;51.722;0.500;2023-08-01T03:33:08;99771.93;;;13.27;100.00
49463;BME280;35357;51.722;0.500;2023-08-01T03:35:35;99769.64;;;13.11;100.00
49463;BME280;35357;51.722;0.500;2023-08-01T03:38:01;99771.91;;;13.67;100.00
49463;BME280;35357;51.722;0.500;2023-08-01T03:40:28;99771.38;;;13.46;100.00
49463;BME280;35357;51.722;0.500;2023-08-01T03:42:55;99774.55;;;13.33;100.00
49463;BME280;35357;51.722;0.500;2023-08-01T03:45:23;99771.19;;;13.94;100.00
49463;BME280;35357;51.722;0.500;2023-08-01T03:47:50;99772.20;;;13.18;100.00
49463;BME280;35357;51.722;0.500;2023-08-01T03:50:17;99769.00;;;12.92;100.00
49463;BME280;35357;51.722;0.500;2023-08-01T03:52:44;99770.15;;;12.14;100.00
49463;BME280;35357;51.722;0.500;2023-08-01T03:55:12;99773.00;;;12.91;100.00
49463;BME280;35357;51.722;0.500;2023-08-01T03:57:39;99776.22;;;13.46;100.00
49463;BME280;35357;51.722;0.500;2023-08-01T04:00:07;99775.95;;;13.41;100.00
49463;BME280;35357;51.722;0.500;2023-08-01T04:02:35;99769.53;;;13.97;100.00
49463;BME280;35357;51.722;0.500;2023-08-01T04:05:03;99779.03;;;13.27;100.00
49463;BME280;35357;51.722;0.500;2023-08-01T04:07:30;99780.17;;;13.66;100.00
49463;BME280;35357;51.722;0.500;2023-08-01T04:09:57;99781.44;;;13.20;100.00
49463;BME280;35357;51.722;0.500;2023-08-01T04:12:24;99779.22;;;13.71;100.00
49463;BME280;35357;51.722;0.500;2023-08-01T04:14:51;99782.69;;;13.22;100.00
49463;BME280;35357;51.722;0.500;2023-08-01T04:17:18;99785.41;;;13.54;100.00
49463;BME280;35357;51.722;0.500;2023-08-01T04:19:45;99785.96;;;13.52;100.00
49463;BME280;35357;51.722;0.500;2023-08-01T04:22:12;99783.85;;;13.53;100.00
49463;BME280;35357;51.722;0.500;2023-08-01T04:24:39;99776.23;;;13.29;100.00
49463;BME280;35357;51.722;0.500;2023-08-01T04:27:06;99777.17;;;13.72;100.00
49463;BME280;35357;51.722;0.500;2023-08-01T04:29:32;99774.32;;;13.78;100.00
49463;BME280;35357;51.722;0.500;2023-08-01T04:31:59;99778.18;;;13.92;100.00
49463;BME280;35357;51.722;0.500;2023-08-01T04:34:26;99785.54;;;13.42;100.00
49463;BME280;35357;51.722;0.500;2023-08-01T04:36:54;99791.68;;;13.44;100.00
49463;BME280;35357;51.722;0.500;2023-08-01T04:39:21;99785.06;;;13.74;100.00
49463;BME280;35357;51.722;0.500;2023-08-01T04:41:48;99787.25;;;13.81;100.00
49463;BME280;35357;51.722;0.500;2023-08-01T04:44:15;99791.14;;;13.46;100.00
49463;BME280;35357;51.722;0.500;2023-08-01T04:46:42;99791.75;;;13.65;100.00
49463;BME280;35357;51.722;0.500;2023-08-01T04:49:09;99792.53;;;14.18;100.00
49463;BME280;35357;51.722;0.500;2023-08-01T04:51:36;99805.27;;;13.32;100.00
49463;BME280;35357;51.722;0.500;2023-08-01T04:54:03;99802.48;;;12.71;100.00
49463;BME280;35357;51.722;0.500;2023-08-01T04:56:31;99804.37;;;13.55;100.00
49463;BME280;35357;51.722;0.500;2023-08-01T04:58:57;99803.87;;;14.45;100.00
49463;BME280;35357;51.722;0.500;2023-08-01T05:01:25;99807.87;;;14.50;100.00
49463;BME280;35357;51.722;0.500;2023-08-01T05:03:52;99805.10;;;14.90;100.00
49463;BME280;35357;51.722;0.500;2023-08-01T05:06:19;99805.13;;;14.84;100.00
49463;BME280;35357;51.722;0.500;2023-08-01T05:08:46;99810.39;;;13.76;100.00
49463;BME280;35357;51.722;0.500;2023-08-01T05:11:12;99811.42;;;14.88;100.00
49463;BME280;35357;51.722;0.500;2023-08-01T05:13:39;99808.48;;;14.37;100.00
49463;BME280;35357;51.722;0.500;2023-08-01T05:16:06;99816.49;;;13.87;100.00
49463;BME280;35357;51.722;0.500;2023-08-01T05:18:33;99821.58;;;12.64;100.00
49463;BME280;35357;51.722;0.500;2023-08-01T05:20:59;99819.11;;;14.83;100.00
49463;BME280;35357;51.722;0.500;2023-08-01T05:23:26;99821.45;;;14.20;100.00
49463;BME280;35357;51.722;0.500;2023-08-01T05:25:53;99826.71;;;14.33;100.00
49463;BME280;35357;51.722;0.500;2023-08-01T05:28:21;99830.48;;;14.63;100.00
49463;BME280;35357;51.722;0.500;2023-08-01T05:30:48;99833.39;;;13.82;100.00
49463;BME280;35357;51.722;0.500;2023-08-01T05:33:15;99828.80;;;14.10;100.00
49463;BME280;35357;51.722;0.500;2023-08-01T05:35:41;99829.72;;;13.73;100.00
49463;BME280;35357;51.722;0.500;2023-08-01T05:38:08;99832.71;;;13.36;100.00
49463;BME280;35357;51.722;0.500;2023-08-01T05:40:35;99832.93;;;14.75;100.00
49463;BME280;35357;51.722;0.500;2023-08-01T05:43:02;99833.84;;;13.87;100.00
49463;BME280;35357;51.722;0.500;2023-08-01T05:45:29;99830.66;;;13.79;100.00
49463;BME280;35357;51.722;0.500;2023-08-01T05:47:56;99831.84;;;13.99;100.00
49463;BME280;35357;51.722;0.500;2023-08-01T05:50:23;99825.04;;;14.86;100.00
49463;BME280;35357;51.722;0.500;2023-08-01T05:52:50;99826.39;;;14.41;100.00
49463;BME280;35357;51.722;0.500;2023-08-01T05:55:17;99823.30;;;14.09;100.00
49463;BME280;35357;51.722;0.500;2023-08-01T05:57:44;99826.24;;;13.38;100.00
49463;BME280;35357;51.722;0.500;2023-08-01T06:00:12;99826.98;;;13.73;100.00
49463;BME280;35357;51.722;0.500;2023-08-01T06:02:40;99831.22;;;13.82;100.00
49463;BME280;35357;51.722;0.500;2023-08-01T06:05:07;99827.45;;;13.40;100.00
49463;BME280;35357;51.722;0.500;2023-08-01T06:07:34;99830.56;;;14.37;100.00
49463;BME280;35357;51.722;0.500;2023-08-01T06:10:01;99829.24;;;14.88;100.00
49463;BME280;35357;51.722;0.500;2023-08-01T06:12:29;99830.90;;;14.59;100.00
49463;BME280;35357;51.722;0.500;2023-08-01T06:14:57;99836.19;;;14.51;100.00
49463;BME280;35357;51.722;0.500;2023-08-01T06:17:24;99833.86;;;14.28;100.00
49463;BME280;35357;51.722;0.500;2023-08-01T06:19:51;99842.45;;;14.02;100.00
49463;BME280;35357;51.722;0.500;2023-08-01T06:22:18;99837.56;;;14.90;100.00
49463;BME280;35357;51.722;0.500;2023-08-01T06:24:45;99845.82;;;13.88;100.00
49463;BME280;35357;51.722;0.500;2023-08-01T06:27:12;99837.17;;;14.57;100.00
49463;BME280;35357;51.722;0.500;2023-08-01T06:29:39;99842.42;;;14.19;100.00
49463;BME280;35357;51.722;0.500;2023-08-01T06:32:07;99843.65;;;14.80;100.00
49463;BME280;35357;51.722;0.500;2023-08-01T06:34:34;99848.92;;;13.16;100.00
49463;BME280;35357;51.722;0.500;2023-08-01T06:37:00;99844.67;;;14.73;100.00
49463;BME280;35357;51.722;0.500;2023-08-01T06:39:28;99848.48;;;14.96;100.00
49463;BME280;35357;51.722;0.500;2023-08-01T06:41:55;99848.49;;;13.87;100.00
49463;BME280;35357;51.722;0.500;2023-08-01T06:44:22;99852.75;;;14.30;100.00
49463;BME280;35357;51.722;0.500;2023-08-01T06:46:49;99849.50;;;14.19;100.00
49463;BME280;35357;51.722;0.500;2023-08-01T06:49:16;99855.52;;;14.39;100.00
49463;BME280;35357;51.722;0.500;2023-08-01T06:51:42;99855.37;;;14.83;100.00
49463;BME280;35357;51.722;0.500;2023-08-01T06:54:09;99854.64;;;15.53;100.00
49463;BME280;35357;51.722;0.500;2023-08-01T06:56:36;99859.77;;;14.65;100.00
49463;BME280;35357;51.722;0.500;2023-08-01T06:59:03;99865.55;;;14.10;100.00
49463;BME280;35357;51.722;0.500;2023-08-01T07:01:30;99858.97;;;14.60;100.00
49463;BME280;35357;51.722;0.500;2023-08-01T07:03:58;99864.15;;;13.71;100.00
49463;BME280;35357;51.722;0.500;2023-08-01T07:06:25;99869.85;;;13.91;100.00
49463;BME280;35357;51.722;0.500;2023-08-01T07:08:52;99867.84;;;14.11;100.00
49463;BME280;35357;51.722;0.500;2023-08-01T07:11:18;99862.15;;;15.06;100.00
49463;BME280;35357;51.722;0.500;2023-08-01T07:13:45;99868.45;;;15.55;100.00
49463;BME280;35357;51.722;0.500;2023-08-01T07:16:12;99866.76;;;14.32;100.00
49463;BME280;35357;51.722;0.500;2023-08-01T07:18:39;99870.63;;;13.56;100.00
49463;BME280;35357;51.722;0.500;2023-08-01T07:21:07;99868.54;;;15.00;100.00
49463;BME280;35357;51.722;0.500;2023-08-01T07:23:35;99862.34;;;15.72;100.00
49463;BME280;35357;51.722;0.500;2023-08-01T07:26:02;99869.08;;;14.77;100.00
49463;BME280;35357;51.722;0.500;2023-08-01T07:28:30;99866.78;;;14.57;100.00
49463;BME280;35357;51.722;0.500;2023-08-01T07:30:59;99863.73;;;14.29;100.00
49463;BME280;35357;51.722;0.500;2023-08-01T07:33:27;99870.40;;;14.34;100.00
49463;BME280;35357;51.722;0.500;2023-08-01T07:35:54;99866.09;;;14.81;100.00
49463;BME280;35357;51.722;0.500;2023-08-01T07:38:22;99869.85;;;14.37;100.00
49463;BME280;35357;51.722;0.500;2023-08-01T07:40:50;99868.09;;;14.61;100.00
49463;BME280;35357;51.722;0.500;2023-08-01T07:43:17;99865.25;;;14.43;100.00
49463;BME280;35357;51.722;0.500;2023-08-01T07:45:44;99862.22;;;14.40;100.00
49463;BME280;35357;51.722;0.500;2023-08-01T07:48:12;99864.57;;;15.11;100.00
49463;BME280;35357;51.722;0.500;2023-08-01T07:50:39;99868.02;;;14.60;100.00
49463;BME280;35357;51.722;0.500;2023-08-01T07:53:06;99869.37;;;14.61;100.00
49463;BME280;35357;51.722;0.500;2023-08-01T07:55:33;99870.43;;;14.91;100.00
49463;BME280;35357;51.722;0.500;2023-08-01T07:58:00;99873.41;;;14.73;100.00
49463;BME280;35357;51.722;0.500;2023-08-01T08:00:27;99874.79;;;14.63;100.00
49463;BME280;35357;51.722;0.500;2023-08-01T08:02:54;99871.51;;;14.13;100.00
49463;BME280;35357;51.722;0.500;2023-08-01T08:05:21;99878.51;;;14.78;100.00
49463;BME280;35357;51.722;0.500;2023-08-01T08:07:49;99880.33;;;14.94;99.93
49463;BME280;35357;51.722;0.500;2023-08-01T08:10:15;99885.45;;;14.43;99.23
49463;BME280;35357;51.722;0.500;2023-08-01T08:12:42;99884.38;;;14.29;98.41
49463;BME280;35357;51.722;0.500;2023-08-01T08:15:09;99878.96;;;14.70;98.83
49463;BME280;35357;51.722;0.500;2023-08-01T08:17:36;99874.71;;;14.87;97.54
49463;BME280;35357;51.722;0.500;2023-08-01T08:20:04;66588.06;;;15.95;81.20
49463;BME280;35357;51.722;0.500;2023-08-01T08:22:31;99880.95;;;15.83;93.86
49463;BME280;35357;51.722;0.500;2023-08-01T08:24:58;99870.43;;;15.05;94.43
49463;BME280;35357;51.722;0.500;2023-08-01T08:27:25;99868.05;;;15.64;94.34
49463;BME280;35357;51.722;0.500;2023-08-01T08:29:52;99873.45;;;14.93;95.10
49463;BME280;35357;51.722;0.500;2023-08-01T08:32:19;99874.97;;;15.15;93.54
49463;BME280;35357;51.722;0.500;2023-08-01T08:34:46;99873.57;;;15.18;92.20
49463;BME280;35357;51.722;0.500;2023-08-01T08:37:13;99881.84;;;15.46;90.26
49463;BME280;35357;51.722;0.500;2023-08-01T08:39:40;99876.94;;;14.66;90.01
49463;BME280;35357;51.722;0.500;2023-08-01T08:42:07;99884.09;;;15.17;89.26
49463;BME280;35357;51.722;0.500;2023-08-01T08:44:42;99882.74;;;15.34;86.77
49463;BME280;35357;51.722;0.500;2023-08-01T08:47:10;99885.89;;;15.40;88.88
49463;BME280;35357;51.722;0.500;2023-08-01T08:49:38;99884.64;;;15.38;88.73
49463;BME280;35357;51.722;0.500;2023-08-01T08:52:07;99884.88;;;15.80;88.09
49463;BME280;35357;51.722;0.500;2023-08-01T08:54:35;99881.90;;;15.68;85.79
49463;BME280;35357;51.722;0.500;2023-08-01T08:57:05;99882.02;;;15.40;88.45
49463;BME280;35357;51.722;0.500;2023-08-01T08:59:33;99882.83;;;15.39;86.21
49463;BME280;35357;51.722;0.500;2023-08-01T09:02:02;99887.91;;;15.40;86.69
49463;BME280;35357;51.722;0.500;2023-08-01T09:04:30;99882.65;;;15.61;86.52
49463;BME280;35357;51.722;0.500;2023-08-01T09:07:02;99880.79;;;15.92;84.38
49463;BME280;35357;51.722;0.500;2023-08-01T09:09:29;99881.06;;;16.49;83.32
49463;BME280;35357;51.722;0.500;2023-08-01T09:11:58;99876.94;;;15.83;83.60
49463;BME280;35357;51.722;0.500;2023-08-01T09:14:25;99882.64;;;15.67;83.23
49463;BME280;35357;51.722;0.500;2023-08-01T09:16:52;99878.61;;;15.48;81.96
49463;BME280;35357;51.722;0.500;2023-08-01T09:19:21;99876.55;;;15.70;84.67
49463;BME280;35357;51.722;0.500;2023-08-01T09:21:48;99876.62;;;15.63;82.40
49463;BME280;35357;51.722;0.500;2023-08-01T09:24:18;99875.16;;;16.00;82.33
49463;BME280;35357;51.722;0.500;2023-08-01T09:26:46;99879.56;;;16.31;80.66
49463;BME280;35357;51.722;0.500;2023-08-01T09:29:15;99876.69;;;16.77;78.91
49463;BME280;35357;51.722;0.500;2023-08-01T09:31:43;99883.10;;;16.15;78.36
49463;BME280;35357;51.722;0.500;2023-08-01T09:34:19;99884.84;;;16.07;80.02
49463;BME280;35357;51.722;0.500;2023-08-01T09:36:47;99882.78;;;16.61;79.02
49463;BME280;35357;51.722;0.500;2023-08-01T09:39:17;99889.33;;;16.91;78.86
49463;BME280;35357;51.722;0.500;2023-08-01T09:41:44;99885.55;;;17.60;76.19
49463;BME280;35357;51.722;0.500;2023-08-01T09:44:14;99893.64;;;17.39;77.23
49463;BME280;35357;51.722;0.500;2023-08-01T09:46:42;99890.71;;;16.72;78.55
49463;BME280;35357;51.722;0.500;2023-08-01T09:49:10;99892.56;;;16.71;76.30
49463;BME280;35357;51.722;0.500;2023-08-01T09:51:46;99889.86;;;18.06;73.48
49463;BME280;35357;51.722;0.500;2023-08-01T09:54:13;99885.08;;;18.13;71.41
49463;BME280;35357;51.722;0.500;2023-08-01T09:56:40;99888.89;;;17.32;71.76
49463;BME280;35357;51.722;0.500;2023-08-01T09:59:09;99889.83;;;16.70;74.86
49463;BME280;35357;51.722;0.500;2023-08-01T10:01:38;99896.86;;;16.28;76.26
49463;BME280;35357;51.722;0.500;2023-08-01T10:04:07;99896.88;;;16.31;76.48
49463;BME280;35357;51.722;0.500;2023-08-01T10:06:37;99890.39;;;16.16;77.17
49463;BME280;35357;51.722;0.500;2023-08-01T10:09:05;99890.41;;;17.24;74.94
49463;BME280;35357;51.722;0.500;2023-08-01T10:11:34;99890.42;;;17.52;73.23
49463;BME280;35357;51.722;0.500;2023-08-01T10:14:03;99883.23;;;16.83;74.64
49463;BME280;35357;51.722;0.500;2023-08-01T10:16:31;99888.35;;;16.93;74.74
49463;BME280;35357;51.722;0.500;2023-08-01T10:18:59;99884.83;;;17.48;72.68
49463;BME280;35357;51.722;0.500;2023-08-01T10:21:27;99898.53;;;17.21;71.41
49463;BME280;35357;51.722;0.500;2023-08-01T10:23:56;99896.58;;;17.63;72.14
49463;BME280;35357;51.722;0.500;2023-08-01T10:26:25;99897.48;;;17.43;73.49
49463;BME280;35357;51.722;0.500;2023-08-01T10:28:52;99899.38;;;18.77;68.48
49463;BME280;35357;51.722;0.500;2023-08-01T10:31:20;99898.37;;;18.81;67.54
49463;BME280;35357;51.722;0.500;2023-08-01T10:33:48;99894.51;;;18.43;67.41
49463;BME280;35357;51.722;0.500;2023-08-01T10:36:17;99892.64;;;17.92;68.87
49463;BME280;35357;51.722;0.500;2023-08-01T10:38:47;99891.56;;;18.32;67.79
49463;BME280;35357;51.722;0.500;2023-08-01T10:41:27;99890.20;;;17.08;71.58
49463;BME280;35357;51.722;0.500;2023-08-01T10:44:05;99888.54;;;18.03;70.14
49463;BME280;35357;51.722;0.500;2023-08-01T10:46:50;99888.23;;;16.63;73.22
49463;BME280;35357;51.722;0.500;2023-08-01T10:49:18;99899.80;;;16.99;74.12
49463;BME280;35357;51.722;0.500;2023-08-01T10:51:45;99906.33;;;17.10;71.84
49463;BME280;35357;51.722;0.500;2023-08-01T10:54:21;99901.33;;;17.26;70.50
49463;BME280;35357;51.722;0.500;2023-08-01T10:56:50;99896.69;;;17.19;70.91
49463;BME280;35357;51.722;0.500;2023-08-01T10:59:17;99896.94;;;17.23;71.26
49463;BME280;35357;51.722;0.500;2023-08-01T11:01:47;99895.32;;;17.47;70.09
49463;BME280;35357;51.722;0.500;2023-08-01T11:04:16;99894.24;;;17.28;70.38
49463;BME280;35357;51.722;0.500;2023-08-01T11:06:44;99895.71;;;17.20;70.99
49463;BME280;35357;51.722;0.500;2023-08-01T11:09:16;99906.93;;;17.59;70.28
49463;BME280;35357;51.722;0.500;2023-08-01T11:11:43;99909.11;;;17.35;70.83
49463;BME280;35357;51.722;0.500;2023-08-01T11:14:11;99902.99;;;17.66;69.39
49463;BME280;35357;51.722;0.500;2023-08-01T11:16:39;99904.42;;;17.77;70.09
49463;BME280;35357;51.722;0.500;2023-08-01T11:19:17;99903.57;;;18.88;66.29
49463;BME280;35357;51.722;0.500;2023-08-01T11:21:44;99914.30;;;18.67;67.21
49463;BME280;35357;51.722;0.500;2023-08-01T11:24:12;99914.20;;;18.15;66.91
49463;BME280;35357;51.722;0.500;2023-08-01T11:26:41;99920.36;;;16.97;69.91
49463;BME280;35357;51.722;0.500;2023-08-01T11:29:09;99924.44;;;17.05;71.68
49463;BME280;35357;51.722;0.500;2023-08-01T11:31:36;99927.22;;;17.65;70.79
49463;BME280;35357;51.722;0.500;2023-08-01T11:34:04;99932.44;;;17.82;69.38
49463;BME280;35357;51.722;0.500;2023-08-01T11:36:31;99936.24;;;17.76;69.98
49463;BME280;35357;51.722;0.500;2023-08-01T11:39:00;99940.20;;;18.11;68.84
49463;BME280;35357;51.722;0.500;2023-08-01T11:41:28;99945.47;;;17.58;69.70
49463;BME280;35357;51.722;0.500;2023-08-01T11:43:55;99953.46;;;16.73;72.03
49463;BME280;35357;51.722;0.500;2023-08-01T11:46:31;99945.13;;;17.21;70.85
49463;BME280;35357;51.722;0.500;2023-08-01T11:48:59;99940.45;;;16.63;71.95
49463;BME280;35357;51.722;0.500;2023-08-01T11:51:27;99936.98;;;17.06;70.85
49463;BME280;35357;51.722;0.500;2023-08-01T11:54:02;99942.66;;;17.66;70.25
49463;BME280;35357;51.722;0.500;2023-08-01T11:56:30;99946.76;;;17.68;68.90
49463;BME280;35357;51.722;0.500;2023-08-01T11:58:57;99944.19;;;17.91;69.31
49463;BME280;35357;51.722;0.500;2023-08-01T12:01:25;99946.78;;;17.49;68.51
49463;BME280;35357;51.722;0.500;2023-08-01T12:03:53;99948.55;;;17.38;68.61
49463;BME280;35357;51.722;0.500;2023-08-01T12:06:22;99947.58;;;17.89;66.24
49463;BME280;35357;51.722;0.500;2023-08-01T12:08:52;99949.09;;;18.76;65.09
49463;BME280;35357;51.722;0.500;2023-08-01T12:11:20;99947.06;;;18.57;65.98
49463;BME280;35357;51.722;0.500;2023-08-01T12:13:48;99950.63;;;17.52;
49463;BME280;35357;51.722;0.500;2023-08-01T12:16:25;99950.62;;;17.71;67.95
49463;BME280;35357;51.722;0.500;2023-08-01T12:18:53;99944.14;;;18.36;66.67
49463;BME280;35357;51.722;0.500;2023-08-01T12:21:19;99940.01;;;19.08;63.24
49463;BME280;35357;51.722;0.500;2023-08-01T12:23:46;99942.56;;;18.18;64.75
49463;BME280;35357;51.722;0.500;2023-08-01T12:26:14;99937.97;;;18.79;64.28
49463;BME280;35357;51.722;0.500;2023-08-01T12:28:41;99933.19;;;18.82;63.96
49463;BME280;35357;51.722;0.500;2023-08-01T12:31:08;99938.29;;;19.56;61.65
49463;BME280;35357;51.722;0.500;2023-08-01T12:33:35;99936.85;;;18.17;62.70
49463;BME280;35357;51.722;0.500;2023-08-01T12:36:03;99935.95;;;17.95;63.70
49463;BME280;35357;51.722;0.500;2023-08-01T12:38:30;99942.66;;;18.56;62.73
49463;BME280;35357;51.722;0.500;2023-08-01T12:40:58;99938.56;;;18.77;61.52
49463;BME280;35357;51.722;0.500;2023-08-01T12:43:25;99942.32;;;17.83;62.74
49463;BME280;35357;51.722;0.500;2023-08-01T12:45:52;99934.77;;;17.88;62.52
49463;BME280;35357;51.722;0.500;2023-08-01T12:48:19;99932.91;;;18.07;62.38
49463;BME280;35357;51.722;0.500;2023-08-01T12:50:46;99942.86;;;17.95;59.83
49463;BME280;35357;51.722;0.500;2023-08-01T12:53:14;99948.72;;;18.41;59.57
49463;BME280;35357;51.722;0.500;2023-08-01T12:55:42;99948.00;;;19.00;59.78
49463;BME280;35357;51.722;0.500;2023-08-01T12:58:10;99955.31;;;18.53;59.98